sensor_id;sensor_type;location;lat;lon;timestamp;P1;durP1;ratioP1;P2;durP2;ratioP2
2972;SDS011;1496;51.404;7.232;2022-12-05T00:01:20;35.43;;;18.80;;
2972;SDS011;1496;51.404;7.232;2022-12-05T00:03:50;33.10;;;20.40;;
2972;SDS011;1496;51.404;7.232;2022-12-05T00:06:17;37.53;;;19.93;;
2972;SDS011;1496;51.404;7.232;2022-12-05T00:08:44;33.23;;;19.03;;
2972;SDS011;1496;51.404;7.232;2022-12-05T00:11:17;33.03;;;19.40;;
2972;SDS011;1496;51.404;7.232;2022-12-05T00:13:46;35.83;;;20.33;;
2972;SDS011;1496;51.404;7.232;2022-12-05T00:16:14;39.67;;;21.70;;
2972;SDS011;1496;51.404;7.232;2022-12-05T00:18:42;34.90;;;19.10;;
2972;SDS011;1496;51.404;7.232;2022-12-05T00:21:12;38.17;;;21.67;;
2972;SDS011;1496;51.404;7.232;2022-12-05T00:23:40;31.40;;;19.60;;
2972;SDS011;1496;51.404;7.232;2022-12-05T00:26:06;29.83;;;19.00;;
2972;SDS011;1496;51.404;7.232;2022-12-05T00:28:32;34.40;;;19.77;;
2972;SDS011;1496;51.404;7.232;2022-12-05T00:31:01;36.57;;;19.33;;
2972;SDS011;1496;51.404;7.232;2022-12-05T00:33:32;32.73;;;19.40;;
2972;SDS011;1496;51.404;7.232;2022-12-05T00:36:02;29.73;;;18.70;;
2972;SDS011;1496;51.404;7.232;2022-12-05T00:38:29;32.87;;;18.47;;
2972;SDS011;1496;51.404;7.232;2022-12-05T00:40:55;43.53;;;19.90;;
2972;SDS011;1496;51.404;7.232;2022-12-05T00:43:25;34.23;;;19.73;;
2972;SDS011;1496;51.404;7.232;2022-12-05T00:45:51;38.23;;;20.47;;
2972;SDS011;1496;51.404;7.232;2022-12-05T00:48:17;34.50;;;19.80;;
2972;SDS011;1496;51.404;7.232;2022-12-05T00:50:43;37.03;;;19.80;;
2972;SDS011;1496;51.404;7.232;2022-12-05T00:53:08;38.83;;;20.80;;
2972;SDS011;1496;51.404;7.232;2022-12-05T00:55:35;38.07;;;19.23;;
2972;SDS011;1496;51.404;7.232;2022-12-05T00:58:01;36.97;;;20.70;;
2972;SDS011;1496;51.404;7.232;2022-12-05T01:00:27;30.70;;;18.70;;
2972;SDS011;1496;51.404;7.232;2022-12-05T01:02:53;30.03;;;18.73;;
2972;SDS011;1496;51.404;7.232;2022-12-05T01:05:19;30.27;;;19.40;;
2972;SDS011;1496;51.404;7.232;2022-12-05T01:07:45;33.53;;;19.03;;
2972;SDS011;1496;51.404;7.232;2022-12-05T01:10:11;35.20;;;19.70;;
2972;SDS011;1496;51.404;7.232;2022-12-05T01:12:36;37.47;;;19.50;;
2972;SDS011;1496;51.404;7.232;2022-12-05T01:15:02;34.77;;;20.10;;
2972;SDS011;1496;51.404;7.232;2022-12-05T01:17:28;31.07;;;17.23;;
2972;SDS011;1496;51.404;7.232;2022-12-05T01:19:54;36.13;;;20.90;;
2972;SDS011;1496;51.404;7.232;2022-12-05T01:22:20;32.37;;;21.97;;
2972;SDS011;1496;51.404;7.232;2022-12-05T01:24:45;43.23;;;21.40;;
2972;SDS011;1496;51.404;7.232;2022-12-05T01:27:11;39.13;;;19.90;;
2972;SDS011;1496;51.404;7.232;2022-12-05T01:29:37;40.13;;;23.00;;
2972;SDS011;1496;51.404;7.232;2022-12-05T01:32:02;36.93;;;21.47;;
2972;SDS011;1496;51.404;7.232;2022-12-05T01:34:28;37.20;;;20.10;;
2972;SDS011;1496;51.404;7.232;2022-12-05T01:36:54;36.87;;;20.00;;
2972;SDS011;1496;51.404;7.232;2022-12-05T01:39:19;34.70;;;18.63;;
2972;SDS011;1496;51.404;7.232;2022-12-05T01:41:49;36.33;;;21.13;;
2972;SDS011;1496;51.404;7.232;2022-12-05T01:46:42;36.20;;;20.50;;
2972;SDS011;1496;51.404;7.232;2022-12-05T01:49:24;36.77;;;20.30;;
2972;SDS011;1496;51.404;7.232;2022-12-05T01:51:57;34.67;;;19.20;;
2972;SDS011;1496;51.404;7.232;2022-12-05T01:54:27;35.80;;;19.80;;
2972;SDS011;1496;51.404;7.232;2022-12-05T01:56:57;30.77;;;18.23;;
2972;SDS011;1496;51.404;7.232;2022-12-05T01:59:29;34.40;;;19.77;;
2972;SDS011;1496;51.404;7.232;2022-12-05T02:01:59;35.23;;;20.10;;
2972;SDS011;1496;51.404;7.232;2022-12-05T02:04:25;31.50;;;18.10;;
2972;SDS011;1496;51.404;7.232;2022-12-05T02:06:52;27.53;;;17.63;;
2972;SDS011;1496;51.404;7.232;2022-12-05T02:09:18;35.47;;;20.50;;
2972;SDS011;1496;51.404;7.232;2022-12-05T02:11:58;35.07;;;18.93;;
2972;SDS011;1496;51.404;7.232;2022-12-05T02:17:11;35.40;;;19.63;;
2972;SDS011;1496;51.404;7.232;2022-12-05T02:22:48;33.40;;;17.90;;
2972;SDS011;1496;51.404;7.232;2022-12-05T02:31:36;33.00;;;17.90;;
2972;SDS011;1496;51.404;7.232;2022-12-05T02:34:21;30.90;;;18.80;;
2972;SDS011;1496;51.404;7.232;2022-12-05T02:39:50;30.70;;;17.80;;
2972;SDS011;1496;51.404;7.232;2022-12-05T02:42:23;27.33;;;17.70;;
2972;SDS011;1496;51.404;7.232;2022-12-05T02:45:06;31.17;;;18.77;;
2972;SDS011;1496;51.404;7.232;2022-12-05T02:47:35;33.67;;;18.47;;
2972;SDS011;1496;51.404;7.232;2022-12-05T02:50:08;26.10;;;16.47;;
2972;SDS011;1496;51.404;7.232;2022-12-05T02:52:38;29.57;;;17.73;;
2972;SDS011;1496;51.404;7.232;2022-12-05T02:55:04;31.87;;;19.17;;
2972;SDS011;1496;51.404;7.232;2022-12-05T02:57:33;34.67;;;17.90;;
2972;SDS011;1496;51.404;7.232;2022-12-05T03:00:00;24.60;;;17.30;;
2972;SDS011;1496;51.404;7.232;2022-12-05T03:02:27;30.10;;;16.80;;
2972;SDS011;1496;51.404;7.232;2022-12-05T03:05:13;29.93;;;17.73;;
2972;SDS011;1496;51.404;7.232;2022-12-05T03:07:51;32.80;;;17.83;;
2972;SDS011;1496;51.404;7.232;2022-12-05T03:10:22;27.03;;;17.00;;
2972;SDS011;1496;51.404;7.232;2022-12-05T03:12:55;31.63;;;18.23;;
2972;SDS011;1496;51.404;7.232;2022-12-05T03:15:31;28.70;;;17.00;;
2972;SDS011;1496;51.404;7.232;2022-12-05T03:18:03;30.77;;;17.93;;
2972;SDS011;1496;51.404;7.232;2022-12-05T03:20:35;31.70;;;17.17;;
2972;SDS011;1496;51.404;7.232;2022-12-05T03:23:14;35.10;;;18.47;;
2972;SDS011;1496;51.404;7.232;2022-12-05T03:26:04;33.03;;;18.57;;
2972;SDS011;1496;51.404;7.232;2022-12-05T03:31:33;28.40;;;16.40;;
2972;SDS011;1496;51.404;7.232;2022-12-05T03:34:12;34.40;;;17.40;;
2972;SDS011;1496;51.404;7.232;2022-12-05T03:36:43;29.03;;;18.53;;
2972;SDS011;1496;51.404;7.232;2022-12-05T03:39:17;30.63;;;18.63;;
2972;SDS011;1496;51.404;7.232;2022-12-05T03:41:58;31.43;;;19.20;;
2972;SDS011;1496;51.404;7.232;2022-12-05T03:44:34;32.60;;;17.57;;
2972;SDS011;1496;51.404;7.232;2022-12-05T03:47:29;35.67;;;19.53;;
2972;SDS011;1496;51.404;7.232;2022-12-05T03:50:09;35.53;;;17.60;;
2972;SDS011;1496;51.404;7.232;2022-12-05T03:52:45;32.17;;;17.93;;
2972;SDS011;1496;51.404;7.232;2022-12-05T03:55:15;25.53;;;16.20;;
2972;SDS011;1496;51.404;7.232;2022-12-05T03:57:46;36.80;;;20.57;;
2972;SDS011;1496;51.404;7.232;2022-12-05T04:00:20;35.77;;;21.30;;
2972;SDS011;1496;51.404;7.232;2022-12-05T04:02:54;31.47;;;18.03;;
2972;SDS011;1496;51.404;7.232;2022-12-05T04:05:28;33.20;;;16.70;;
2972;SDS011;1496;51.404;7.232;2022-12-05T04:10:54;30.77;;;17.70;;
2972;SDS011;1496;51.404;7.232;2022-12-05T04:13:33;28.20;;;16.27;;
2972;SDS011;1496;51.404;7.232;2022-12-05T04:22:15;27.50;;;17.80;;
2972;SDS011;1496;51.404;7.232;2022-12-05T04:24:41;31.90;;;16.83;;
2972;SDS011;1496;51.404;7.232;2022-12-05T04:27:35;28.33;;;16.90;;
2972;SDS011;1496;51.404;7.232;2022-12-05T04:30:16;31.93;;;17.90;;
2972;SDS011;1496;51.404;7.232;2022-12-05T04:32:58;29.53;;;15.87;;
2972;SDS011;1496;51.404;7.232;2022-12-05T04:36:09;31.63;;;18.13;;
2972;SDS011;1496;51.404;7.232;2022-12-05T04:38:44;26.90;;;16.27;;
2972;SDS011;1496;51.404;7.232;2022-12-05T04:41:28;31.57;;;16.97;;
2972;SDS011;1496;51.404;7.232;2022-12-05T04:43:58;26.63;;;17.07;;
2972;SDS011;1496;51.404;7.232;2022-12-05T04:46:29;28.00;;;17.33;;
2972;SDS011;1496;51.404;7.232;2022-12-05T04:48:57;36.73;;;17.87;;
2972;SDS011;1496;51.404;7.232;2022-12-05T04:51:26;27.50;;;15.97;;
2972;SDS011;1496;51.404;7.232;2022-12-05T04:53:56;31.20;;;17.40;;
2972;SDS011;1496;51.404;7.232;2022-12-05T04:56:30;24.83;;;16.40;;
2972;SDS011;1496;51.404;7.232;2022-12-05T04:58:59;29.63;;;17.00;;
2972;SDS011;1496;51.404;7.232;2022-12-05T05:01:29;31.47;;;17.63;;
2972;SDS011;1496;51.404;7.232;2022-12-05T05:03:58;30.83;;;18.90;;
2972;SDS011;1496;51.404;7.232;2022-12-05T05:06:36;31.97;;;18.57;;
2972;SDS011;1496;51.404;7.232;2022-12-05T05:09:03;34.23;;;18.23;;
2972;SDS011;1496;51.404;7.232;2022-12-05T05:11:30;30.63;;;17.43;;
2972;SDS011;1496;51.404;7.232;2022-12-05T05:13:57;28.00;;;17.80;;
2972;SDS011;1496;51.404;7.232;2022-12-05T05:16:27;28.00;;;17.40;;
2972;SDS011;1496;51.404;7.232;2022-12-05T05:19:04;29.07;;;16.03;;
2972;SDS011;1496;51.404;7.232;2022-12-05T05:21:32;27.80;;;17.50;;
2972;SDS011;1496;51.404;7.232;2022-12-05T05:24:02;30.77;;;15.50;;
2972;SDS011;1496;51.404;7.232;2022-12-05T05:26:30;30.10;;;16.50;;
2972;SDS011;1496;51.404;7.232;2022-12-05T05:28:58;29.43;;;16.60;;
2972;SDS011;1496;51.404;7.232;2022-12-05T05:31:24;28.10;;;17.07;;
2972;SDS011;1496;51.404;7.232;2022-12-05T05:33:51;31.07;;;18.40;;
2972;SDS011;1496;51.404;7.232;2022-12-05T05:36:18;23.77;;;15.60;;
2972;SDS011;1496;51.404;7.232;2022-12-05T05:38:47;26.60;;;14.93;;
2972;SDS011;1496;51.404;7.232;2022-12-05T05:41:15;22.33;;;14.80;;
2972;SDS011;1496;51.404;7.232;2022-12-05T05:43:42;24.30;;;14.90;;
2972;SDS011;1496;51.404;7.232;2022-12-05T05:46:09;21.57;;;15.30;;
2972;SDS011;1496;51.404;7.232;2022-12-05T05:48:35;22.83;;;14.47;;
2972;SDS011;1496;51.404;7.232;2022-12-05T05:51:01;28.50;;;15.27;;
2972;SDS011;1496;51.404;7.232;2022-12-05T05:53:28;24.70;;;15.07;;
2972;SDS011;1496;51.404;7.232;2022-12-05T05:55:53;24.53;;;14.97;;
2972;SDS011;1496;51.404;7.232;2022-12-05T05:58:19;27.00;;;15.73;;
2972;SDS011;1496;51.404;7.232;2022-12-05T06:00:47;27.40;;;14.90;;
2972;SDS011;1496;51.404;7.232;2022-12-05T06:03:13;24.93;;;15.03;;
2972;SDS011;1496;51.404;7.232;2022-12-05T06:05:39;25.37;;;16.20;;
2972;SDS011;1496;51.404;7.232;2022-12-05T06:08:05;27.60;;;15.80;;
2972;SDS011;1496;51.404;7.232;2022-12-05T06:10:31;22.20;;;13.57;;
2972;SDS011;1496;51.404;7.232;2022-12-05T06:12:58;23.57;;;13.63;;
2972;SDS011;1496;51.404;7.232;2022-12-05T06:15:25;24.37;;;15.20;;
2972;SDS011;1496;51.404;7.232;2022-12-05T06:17:51;27.20;;;15.23;;
2972;SDS011;1496;51.404;7.232;2022-12-05T06:20:17;24.67;;;15.13;;
2972;SDS011;1496;51.404;7.232;2022-12-05T06:22:42;24.00;;;14.90;;
2972;SDS011;1496;51.404;7.232;2022-12-05T06:25:08;21.43;;;14.53;;
2972;SDS011;1496;51.404;7.232;2022-12-05T06:27:34;19.30;;;12.77;;
2972;SDS011;1496;51.404;7.232;2022-12-05T06:30:00;19.73;;;14.03;;
2972;SDS011;1496;51.404;7.232;2022-12-05T06:32:27;24.57;;;14.53;;
2972;SDS011;1496;51.404;7.232;2022-12-05T06:34:53;24.73;;;15.00;;
2972;SDS011;1496;51.404;7.232;2022-12-05T06:37:23;26.57;;;15.10;;
2972;SDS011;1496;51.404;7.232;2022-12-05T06:39:49;23.97;;;15.00;;
2972;SDS011;1496;51.404;7.232;2022-12-05T06:42:16;25.20;;;14.73;;
2972;SDS011;1496;51.404;7.232;2022-12-05T06:44:42;24.47;;;14.80;;
2972;SDS011;1496;51.404;7.232;2022-12-05T06:47:08;23.23;;;14.20;;
2972;SDS011;1496;51.404;7.232;2022-12-05T06:49:33;20.80;;;14.47;;
2972;SDS011;1496;51.404;7.232;2022-12-05T06:51:59;26.57;;;16.37;;
2972;SDS011;1496;51.404;7.232;2022-12-05T06:54:25;28.33;;;15.33;;
2972;SDS011;1496;51.404;7.232;2022-12-05T06:56:51;20.23;;;14.77;;
2972;SDS011;1496;51.404;7.232;2022-12-05T06:59:17;24.77;;;15.10;;
2972;SDS011;1496;51.404;7.232;2022-12-05T07:01:43;26.83;;;14.87;;
2972;SDS011;1496;51.404;7.232;2022-12-05T07:04:11;27.10;;;16.30;;
2972;SDS011;1496;51.404;7.232;2022-12-05T07:06:44;21.97;;;13.93;;
2972;SDS011;1496;51.404;7.232;2022-12-05T07:09:13;23.90;;;15.30;;
2972;SDS011;1496;51.404;7.232;2022-12-05T07:11:39;22.30;;;14.87;;
2972;SDS011;1496;51.404;7.232;2022-12-05T07:14:06;25.70;;;14.40;;
2972;SDS011;1496;51.404;7.232;2022-12-05T07:16:34;24.70;;;16.00;;
2972;SDS011;1496;51.404;7.232;2022-12-05T07:19:00;25.67;;;15.10;;
2972;SDS011;1496;51.404;7.232;2022-12-05T07:21:26;28.00;;;14.90;;
2972;SDS011;1496;51.404;7.232;2022-12-05T07:23:51;24.20;;;15.03;;
2972;SDS011;1496;51.404;7.232;2022-12-05T07:26:19;19.40;;;14.03;;
2972;SDS011;1496;51.404;7.232;2022-12-05T07:28:47;22.83;;;13.73;;
2972;SDS011;1496;51.404;7.232;2022-12-05T07:31:14;24.23;;;13.80;;
2972;SDS011;1496;51.404;7.232;2022-12-05T07:33:46;25.80;;;15.93;;
2972;SDS011;1496;51.404;7.232;2022-12-05T07:36:13;21.40;;;13.70;;
2972;SDS011;1496;51.404;7.232;2022-12-05T07:38:41;22.23;;;15.07;;
2972;SDS011;1496;51.404;7.232;2022-12-05T07:41:18;21.73;;;13.53;;
2972;SDS011;1496;51.404;7.232;2022-12-05T07:43:47;21.17;;;13.73;;
2972;SDS011;1496;51.404;7.232;2022-12-05T07:46:14;25.30;;;14.10;;
2972;SDS011;1496;51.404;7.232;2022-12-05T07:48:41;21.17;;;14.63;;
2972;SDS011;1496;51.404;7.232;2022-12-05T07:51:07;22.57;;;13.53;;
2972;SDS011;1496;51.404;7.232;2022-12-05T07:53:34;24.90;;;16.07;;
2972;SDS011;1496;51.404;7.232;2022-12-05T07:56:01;21.53;;;14.90;;
2972;SDS011;1496;51.404;7.232;2022-12-05T07:58:29;20.10;;;14.33;;
2972;SDS011;1496;51.404;7.232;2022-12-05T08:00:56;26.23;;;15.10;;
2972;SDS011;1496;51.404;7.232;2022-12-05T08:03:22;23.23;;;15.13;;
2972;SDS011;1496;51.404;7.232;2022-12-05T08:05:48;24.17;;;14.30;;
2972;SDS011;1496;51.404;7.232;2022-12-05T08:08:14;21.33;;;14.50;;
2972;SDS011;1496;51.404;7.232;2022-12-05T08:10:40;19.17;;;13.80;;
2972;SDS011;1496;51.404;7.232;2022-12-05T08:13:05;24.63;;;13.97;;
2972;SDS011;1496;51.404;7.232;2022-12-05T08:15:35;21.27;;;14.40;;
2972;SDS011;1496;51.404;7.232;2022-12-05T08:18:00;18.83;;;13.13;;
2972;SDS011;1496;51.404;7.232;2022-12-05T08:20:26;20.53;;;14.27;;
2972;SDS011;1496;51.404;7.232;2022-12-05T08:22:52;20.40;;;13.37;;
2972;SDS011;1496;51.404;7.232;2022-12-05T08:25:18;19.53;;;13.63;;
2972;SDS011;1496;51.404;7.232;2022-12-05T08:27:44;26.90;;;14.27;;
2972;SDS011;1496;51.404;7.232;2022-12-05T08:30:10;19.20;;;12.73;;
2972;SDS011;1496;51.404;7.232;2022-12-05T08:32:35;19.37;;;14.10;;
2972;SDS011;1496;51.404;7.232;2022-12-05T08:35:01;19.87;;;13.10;;
2972;SDS011;1496;51.404;7.232;2022-12-05T08:37:27;24.40;;;13.37;;
2972;SDS011;1496;51.404;7.232;2022-12-05T08:39:53;18.90;;;13.10;;
2972;SDS011;1496;51.404;7.232;2022-12-05T08:42:18;16.83;;;11.80;;
2972;SDS011;1496;51.404;7.232;2022-12-05T08:44:44;17.50;;;13.20;;
2972;SDS011;1496;51.404;7.232;2022-12-05T08:47:10;16.60;;;12.20;;
2972;SDS011;1496;51.404;7.232;2022-12-05T08:49:35;16.67;;;11.83;;
2972;SDS011;1496;51.404;7.232;2022-12-05T08:52:01;16.60;;;10.80;;
2972;SDS011;1496;51.404;7.232;2022-12-05T08:54:27;14.03;;;10.20;;
2972;SDS011;1496;51.404;7.232;2022-12-05T08:56:52;14.77;;;11.23;;
2972;SDS011;1496;51.404;7.232;2022-12-05T08:59:18;15.50;;;9.83;;
2972;SDS011;1496;51.404;7.232;2022-12-05T09:01:44;16.50;;;10.87;;
2972;SDS011;1496;51.404;7.232;2022-12-05T09:04:09;13.57;;;10.07;;
2972;SDS011;1496;51.404;7.232;2022-12-05T09:06:36;14.70;;;11.20;;
2972;SDS011;1496;51.404;7.232;2022-12-05T09:09:04;16.40;;;11.57;;
2972;SDS011;1496;51.404;7.232;2022-12-05T09:11:33;16.90;;;11.90;;
2972;SDS011;1496;51.404;7.232;2022-12-05T09:14:00;14.87;;;11.83;;
2972;SDS011;1496;51.404;7.232;2022-12-05T09:16:30;17.97;;;11.03;;
2972;SDS011;1496;51.404;7.232;2022-12-05T09:18:58;16.40;;;11.83;;
2972;SDS011;1496;51.404;7.232;2022-12-05T09:21:25;15.83;;;11.37;;
2972;SDS011;1496;51.404;7.232;2022-12-05T09:23:53;17.77;;;10.57;;
2972;SDS011;1496;51.404;7.232;2022-12-05T09:26:20;13.93;;;11.03;;
2972;SDS011;1496;51.404;7.232;2022-12-05T09:28:47;14.30;;;9.90;;
2972;SDS011;1496;51.404;7.232;2022-12-05T09:31:14;13.40;;;11.10;;
2972;SDS011;1496;51.404;7.232;2022-12-05T09:33:41;14.13;;;10.13;;
2972;SDS011;1496;51.404;7.232;2022-12-05T09:36:10;14.37;;;10.57;;
2972;SDS011;1496;51.404;7.232;2022-12-05T09:38:50;14.67;;;10.43;;
2972;SDS011;1496;51.404;7.232;2022-12-05T09:44:11;14.27;;;10.23;;
2972;SDS011;1496;51.404;7.232;2022-12-05T09:46:53;14.23;;;10.63;;
2972;SDS011;1496;51.404;7.232;2022-12-05T09:49:23;17.70;;;9.87;;
2972;SDS011;1496;51.404;7.232;2022-12-05T09:51:50;13.20;;;10.70;;
2972;SDS011;1496;51.404;7.232;2022-12-05T09:54:17;15.80;;;10.47;;
2972;SDS011;1496;51.404;7.232;2022-12-05T09:56:44;14.80;;;9.90;;
2972;SDS011;1496;51.404;7.232;2022-12-05T09:59:15;12.40;;;10.03;;
2972;SDS011;1496;51.404;7.232;2022-12-05T10:02:00;13.30;;;10.03;;
2972;SDS011;1496;51.404;7.232;2022-12-05T10:05:05;12.37;;;9.50;;
2972;SDS011;1496;51.404;7.232;2022-12-05T10:07:36;15.97;;;10.43;;
2972;SDS011;1496;51.404;7.232;2022-12-05T10:20:48;12.70;;;9.20;;
2972;SDS011;1496;51.404;7.232;2022-12-05T10:23:22;14.27;;;10.03;;
2972;SDS011;1496;51.404;7.232;2022-12-05T10:25:55;16.23;;;9.70;;
2972;SDS011;1496;51.404;7.232;2022-12-05T10:28:34;10.47;;;9.37;;
2972;SDS011;1496;51.404;7.232;2022-12-05T10:31:08;12.87;;;9.53;;
2972;SDS011;1496;51.404;7.232;2022-12-05T10:33:39;12.03;;;9.33;;
2972;SDS011;1496;51.404;7.232;2022-12-05T10:36:12;12.50;;;10.00;;
2972;SDS011;1496;51.404;7.232;2022-12-05T10:38:39;11.87;;;8.57;;
2972;SDS011;1496;51.404;7.232;2022-12-05T10:41:08;12.33;;;10.07;;
2972;SDS011;1496;51.404;7.232;2022-12-05T10:43:35;12.57;;;9.80;;
2972;SDS011;1496;51.404;7.232;2022-12-05T10:46:03;12.87;;;9.60;;
2972;SDS011;1496;51.404;7.232;2022-12-05T10:48:30;11.80;;;9.03;;
2972;SDS011;1496;51.404;7.232;2022-12-05T10:51:01;10.40;;;8.93;;
2972;SDS011;1496;51.404;7.232;2022-12-05T10:53:30;12.40;;;9.37;;
2972;SDS011;1496;51.404;7.232;2022-12-05T10:59:10;10.77;;;7.77;;
2972;SDS011;1496;51.404;7.232;2022-12-05T11:01:42;10.13;;;8.70;;
2972;SDS011;1496;51.404;7.232;2022-12-05T11:06:50;13.43;;;9.20;;
2972;SDS011;1496;51.404;7.232;2022-12-05T11:09:23;10.07;;;8.07;;
2972;SDS011;1496;51.404;7.232;2022-12-05T11:11:59;13.20;;;9.57;;
2972;SDS011;1496;51.404;7.232;2022-12-05T11:14:28;12.10;;;8.43;;
2972;SDS011;1496;51.404;7.232;2022-12-05T11:16:56;13.53;;;9.53;;
2972;SDS011;1496;51.404;7.232;2022-12-05T11:19:27;12.80;;;9.60;;
2972;SDS011;1496;51.404;7.232;2022-12-05T11:21:58;13.33;;;9.00;;
2972;SDS011;1496;51.404;7.232;2022-12-05T11:24:34;11.30;;;7.67;;
2972;SDS011;1496;51.404;7.232;2022-12-05T11:30:15;12.20;;;8.77;;
2972;SDS011;1496;51.404;7.232;2022-12-05T11:32:46;13.20;;;8.50;;
2972;SDS011;1496;51.404;7.232;2022-12-05T11:35:21;10.00;;;7.63;;
2972;SDS011;1496;51.404;7.232;2022-12-05T11:37:59;12.87;;;8.47;;
2972;SDS011;1496;51.404;7.232;2022-12-05T11:45:58;12.60;;;9.80;;
2972;SDS011;1496;51.404;7.232;2022-12-05T11:54:34;12.57;;;9.80;;
2972;SDS011;1496;51.404;7.232;2022-12-05T11:57:27;11.93;;;9.20;;
2972;SDS011;1496;51.404;7.232;2022-12-05T12:00:18;13.43;;;10.53;;
2972;SDS011;1496;51.404;7.232;2022-12-05T12:03:15;12.97;;;9.60;;
2972;SDS011;1496;51.404;7.232;2022-12-05T12:08:24;14.10;;;10.20;;
2972;SDS011;1496;51.404;7.232;2022-12-05T12:13:38;12.20;;;9.40;;
2972;SDS011;1496;51.404;7.232;2022-12-05T12:19:41;14.43;;;10.17;;
2972;SDS011;1496;51.404;7.232;2022-12-05T12:21:52;12.17;;;9.87;;
2972;SDS011;1496;51.404;7.232;2022-12-05T12:27:02;15.10;;;9.60;;
2972;SDS011;1496;51.404;7.232;2022-12-05T12:40:52;18.17;;;10.27;;
2972;SDS011;1496;51.404;7.232;2022-12-05T12:51:30;18.30;;;12.20;;
2972;SDS011;1496;51.404;7.232;2022-12-05T12:59:18;15.00;;;11.00;;
2972;SDS011;1496;51.404;7.232;2022-12-05T13:02:00;18.20;;;10.47;;
2972;SDS011;1496;51.404;7.232;2022-12-05T13:04:49;15.93;;;11.13;;
2972;SDS011;1496;51.404;7.232;2022-12-05T13:07:34;14.73;;;9.90;;
2972;SDS011;1496;51.404;7.232;2022-12-05T13:12:54;12.77;;;10.00;;
2972;SDS011;1496;51.404;7.232;2022-12-05T13:15:27;17.70;;;10.47;;
2972;SDS011;1496;51.404;7.232;2022-12-05T13:18:05;13.03;;;11.67;;
2972;SDS011;1496;51.404;7.232;2022-12-05T13:20:36;14.40;;;11.30;;
2972;SDS011;1496;51.404;7.232;2022-12-05T13:23:04;13.33;;;10.27;;
2972;SDS011;1496;51.404;7.232;2022-12-05T13:25:33;17.87;;;10.07;;
2972;SDS011;1496;51.404;7.232;2022-12-05T13:28:04;16.83;;;12.00;;
2972;SDS011;1496;51.404;7.232;2022-12-05T13:30:32;14.47;;;10.87;;
2972;SDS011;1496;51.404;7.232;2022-12-05T13:33:19;13.90;;;10.30;;
2972;SDS011;1496;51.404;7.232;2022-12-05T13:35:55;15.00;;;11.07;;
2972;SDS011;1496;51.404;7.232;2022-12-05T13:38:40;13.90;;;11.20;;
2972;SDS011;1496;51.404;7.232;2022-12-05T13:41:41;17.37;;;12.10;;
2972;SDS011;1496;51.404;7.232;2022-12-05T13:44:30;16.00;;;10.60;;
2972;SDS011;1496;51.404;7.232;2022-12-05T13:47:28;16.13;;;11.30;;
2972;SDS011;1496;51.404;7.232;2022-12-05T13:50:17;16.10;;;12.20;;
2972;SDS011;1496;51.404;7.232;2022-12-05T13:52:50;19.83;;;13.30;;
2972;SDS011;1496;51.404;7.232;2022-12-05T13:55:34;17.00;;;11.90;;
2972;SDS011;1496;51.404;7.232;2022-12-05T13:58:03;18.73;;;13.47;;
2972;SDS011;1496;51.404;7.232;2022-12-05T14:00:47;17.77;;;12.37;;
2972;SDS011;1496;51.404;7.232;2022-12-05T14:03:15;17.50;;;12.17;;
2972;SDS011;1496;51.404;7.232;2022-12-05T14:05:50;17.33;;;11.93;;
2972;SDS011;1496;51.404;7.232;2022-12-05T14:16:59;16.40;;;12.30;;
2972;SDS011;1496;51.404;7.232;2022-12-05T14:18:57;16.23;;;12.67;;
2972;SDS011;1496;51.404;7.232;2022-12-05T14:21:58;19.20;;;12.50;;
2972;SDS011;1496;51.404;7.232;2022-12-05T14:25:19;18.03;;;11.80;;
2972;SDS011;1496;51.404;7.232;2022-12-05T14:30:34;16.93;;;12.70;;
2972;SDS011;1496;51.404;7.232;2022-12-05T14:33:25;16.20;;;12.83;;
2972;SDS011;1496;51.404;7.232;2022-12-05T14:35:51;19.67;;;14.03;;
2972;SDS011;1496;51.404;7.232;2022-12-05T14:38:27;22.13;;;14.03;;
2972;SDS011;1496;51.404;7.232;2022-12-05T14:40:55;20.43;;;13.97;;
2972;SDS011;1496;51.404;7.232;2022-12-05T14:43:35;20.47;;;13.87;;
2972;SDS011;1496;51.404;7.232;2022-12-05T14:46:03;20.30;;;13.80;;
2972;SDS011;1496;51.404;7.232;2022-12-05T14:48:33;18.80;;;13.07;;
2972;SDS011;1496;51.404;7.232;2022-12-05T14:51:41;16.53;;;12.40;;
2972;SDS011;1496;51.404;7.232;2022-12-05T14:53:54;16.23;;;12.10;;
2972;SDS011;1496;51.404;7.232;2022-12-05T14:56:22;18.00;;;13.23;;
2972;SDS011;1496;51.404;7.232;2022-12-05T15:07:07;17.10;;;11.27;;
2972;SDS011;1496;51.404;7.232;2022-12-05T15:12:23;17.10;;;11.23;;
2972;SDS011;1496;51.404;7.232;2022-12-05T15:29:10;16.00;;;11.90;;
2972;SDS011;1496;51.404;7.232;2022-12-05T15:31:44;16.47;;;11.77;;
2972;SDS011;1496;51.404;7.232;2022-12-05T15:34:17;14.70;;;11.17;;
2972;SDS011;1496;51.404;7.232;2022-12-05T15:36:51;16.20;;;11.80;;
2972;SDS011;1496;51.404;7.232;2022-12-05T15:42:14;17.37;;;11.30;;
2972;SDS011;1496;51.404;7.232;2022-12-05T15:44:40;18.53;;;12.20;;
2972;SDS011;1496;51.404;7.232;2022-12-05T15:47:14;14.77;;;11.37;;
2972;SDS011;1496;51.404;7.232;2022-12-05T15:49:47;18.30;;;12.53;;
2972;SDS011;1496;51.404;7.232;2022-12-05T15:52:22;17.23;;;12.47;;
2972;SDS011;1496;51.404;7.232;2022-12-05T15:54:58;17.53;;;12.77;;
2972;SDS011;1496;51.404;7.232;2022-12-05T15:57:48;19.57;;;13.10;;
2972;SDS011;1496;51.404;7.232;2022-12-05T16:00:17;17.67;;;12.80;;
2972;SDS011;1496;51.404;7.232;2022-12-05T16:03:00;16.10;;;11.20;;
2972;SDS011;1496;51.404;7.232;2022-12-05T16:06:00;17.13;;;11.40;;
2972;SDS011;1496;51.404;7.232;2022-12-05T16:08:29;16.20;;;11.90;;
2972;SDS011;1496;51.404;7.232;2022-12-05T16:11:11;15.90;;;10.07;;
2972;SDS011;1496;51.404;7.232;2022-12-05T16:13:41;15.27;;;10.57;;
2972;SDS011;1496;51.404;7.232;2022-12-05T16:16:12;12.93;;;9.43;;
2972;SDS011;1496;51.404;7.232;2022-12-05T16:19:12;13.33;;;9.63;;
2972;SDS011;1496;51.404;7.232;2022-12-05T16:21:42;12.97;;;9.13;;
2972;SDS011;1496;51.404;7.232;2022-12-05T16:24:26;14.23;;;9.60;;
2972;SDS011;1496;51.404;7.232;2022-12-05T16:27:16;11.17;;;9.00;;
2972;SDS011;1496;51.404;7.232;2022-12-05T16:30:04;10.67;;;7.60;;
2972;SDS011;1496;51.404;7.232;2022-12-05T16:32:41;12.70;;;9.30;;
2972;SDS011;1496;51.404;7.232;2022-12-05T16:35:27;11.80;;;9.17;;
2972;SDS011;1496;51.404;7.232;2022-12-05T16:38:19;11.47;;;8.60;;
2972;SDS011;1496;51.404;7.232;2022-12-05T16:40:51;11.67;;;8.70;;
2972;SDS011;1496;51.404;7.232;2022-12-05T16:43:23;13.27;;;8.67;;
2972;SDS011;1496;51.404;7.232;2022-12-05T16:45:52;10.23;;;8.77;;
2972;SDS011;1496;51.404;7.232;2022-12-05T16:48:26;13.70;;;10.23;;
2972;SDS011;1496;51.404;7.232;2022-12-05T16:53:50;10.10;;;8.80;;
2972;SDS011;1496;51.404;7.232;2022-12-05T16:56:19;13.03;;;9.30;;
2972;SDS011;1496;51.404;7.232;2022-12-05T16:58:54;11.70;;;8.60;;
2972;SDS011;1496;51.404;7.232;2022-12-05T17:01:21;11.77;;;8.63;;
2972;SDS011;1496;51.404;7.232;2022-12-05T17:03:49;11.17;;;9.10;;
2972;SDS011;1496;51.404;7.232;2022-12-05T17:06:15;11.23;;;9.27;;
2972;SDS011;1496;51.404;7.232;2022-12-05T17:08:45;11.20;;;8.53;;
2972;SDS011;1496;51.404;7.232;2022-12-05T17:11:13;12.00;;;8.83;;
2972;SDS011;1496;51.404;7.232;2022-12-05T17:13:50;13.23;;;10.00;;
2972;SDS011;1496;51.404;7.232;2022-12-05T17:16:17;12.60;;;9.00;;
2972;SDS011;1496;51.404;7.232;2022-12-05T17:18:44;12.27;;;9.27;;
2972;SDS011;1496;51.404;7.232;2022-12-05T17:21:31;12.80;;;10.00;;
2972;SDS011;1496;51.404;7.232;2022-12-05T17:23:57;12.53;;;9.87;;
2972;SDS011;1496;51.404;7.232;2022-12-05T17:26:23;13.10;;;8.70;;
2972;SDS011;1496;51.404;7.232;2022-12-05T17:28:49;13.17;;;8.80;;
2972;SDS011;1496;51.404;7.232;2022-12-05T17:31:16;9.73;;;7.53;;
2972;SDS011;1496;51.404;7.232;2022-12-05T17:33:44;11.20;;;8.70;;
2972;SDS011;1496;51.404;7.232;2022-12-05T17:36:10;9.77;;;7.63;;
2972;SDS011;1496;51.404;7.232;2022-12-05T17:38:36;8.67;;;7.03;;
2972;SDS011;1496;51.404;7.232;2022-12-05T17:41:02;10.23;;;6.80;;